Archiv-/Tagesdaten

--Timestamp---	Temp	Chill	HIndex	Humid	Dewpt	 Wind 	HiWind	WindDir	Rain 	Barom	Solar	 ET  	 UV 
--------------	----	-----	------	-----	-----	------	------	-------	-----	-----	-----	-----	----
20090624 00:00	11.4	11.4	11.4	95	10.6	6	10	270	0.6	1016.9	0	0.000	0.0
20090624 00:05	11.3	11.3	11.3	95	10.6	6	11	270	0.2	1016.9	10	0.000	0.0
20090624 00:10	11.4	11.4	11.4	95	10.6	6	10	270	0.4	1016.9	0	0.000	0.0
20090624 00:15	11.3	11.3	11.3	95	10.6	5	8	292	0.4	1016.9	0	0.000	0.0
20090624 00:20	11.3	11.3	11.3	95	10.6	3	8	292	0.4	1016.9	0	0.000	0.0
20090624 00:25	11.3	11.3	11.3	95	10.6	3	6	292	0.2	1016.9	0	0.000	0.0
20090624 00:30	11.3	11.3	11.3	95	10.6	5	10	292	0.4	1016.9	0	0.000	0.0
20090624 00:35	11.3	11.3	11.3	95	10.6	5	8	292	0.2	1016.8	0	0.000	0.0
20090624 00:40	11.3	11.3	11.3	95	10.6	6	10	292	0.2	1016.8	0	0.000	0.0
20090624 00:45	11.3	11.3	11.3	95	10.6	6	10	292	0.2	1016.8	0	0.000	0.0
20090624 00:50	11.3	11.3	11.3	95	10.6	8	13	292	0.2	1016.8	0	0.000	0.0
20090624 00:55	11.3	11.3	11.3	95	10.6	8	11	292	0.2	1016.8	0	0.000	0.0
20090624 01:00	11.3	11.3	11.3	95	10.6	6	11	292	0.2	1016.7	0	0.000	0.0
20090624 01:05	11.3	11.3	11.3	95	10.6	5	8	292	0.0	1016.7	0	0.000	0.0
20090624 01:10	11.3	11.3	11.3	95	10.6	6	11	292	0.2	1016.5	0	0.000	0.0
20090624 01:15	11.3	11.3	11.3	95	10.6	6	11	292	0.0	1016.5	0	0.000	0.0
20090624 01:20	11.3	11.3	11.3	95	10.6	6	11	292	0.0	1016.5	0	0.000	0.0
20090624 01:25	11.3	11.3	11.3	95	10.6	3	6	292	0.0	1016.5	0	0.000	0.0
20090624 01:30	11.3	11.3	11.3	95	10.6	5	8	292	0.0	1016.4	0	0.000	0.0
20090624 01:35	11.3	11.3	11.3	95	10.6	5	8	292	0.2	1016.4	0	0.000	0.0
20090624 01:40	11.3	11.3	11.3	95	10.6	5	11	292	0.0	1016.3	0	0.000	0.0
20090624 01:45	11.3	11.3	11.3	95	10.5	6	11	270	0.0	1016.2	0	0.000	0.0
20090624 01:50	11.3	11.3	11.3	95	10.5	8	14	270	0.2	1016.1	0	0.000	0.0
20090624 01:55	11.3	11.3	11.3	95	10.5	8	16	270	0.0	1016.0	0	0.000	0.0
20090624 02:00	11.3	11.3	11.3	95	10.5	6	11	292	0.0	1016.1	0	0.000	0.0
20090624 02:05	11.3	11.3	11.3	95	10.5	8	14	292	0.0	1016.2	0	0.000	0.0
20090624 02:10	11.3	11.3	11.3	95	10.5	8	13	270	0.0	1016.1	0	0.000	0.0
20090624 02:15	11.3	11.3	11.3	95	10.5	6	14	270	0.0	1016.0	0	0.000	0.0
20090624 02:20	11.3	11.3	11.3	95	10.5	8	14	270	0.0	1016.1	0	0.000	0.0
20090624 02:25	11.3	11.3	11.3	95	10.5	6	11	270	0.0	1016.0	0	0.000	0.0
20090624 02:30	11.3	11.3	11.3	95	10.6	6	11	270	0.0	1016.1	0	0.000	0.0
20090624 02:35	11.3	11.3	11.3	95	10.5	6	10	270	0.0	1016.1	0	0.000	0.0
20090624 02:40	11.3	11.3	11.3	95	10.5	6	11	270	0.0	1015.9	0	0.000	0.0
20090624 02:45	11.3	11.3	11.3	95	10.5	8	14	270	0.0	1015.8	0	0.000	0.0
20090624 02:50	11.3	11.3	11.3	95	10.5	8	14	270	0.0	1015.7	0	0.000	0.0
20090624 02:55	11.3	11.3	11.3	95	10.5	8	16	270	0.0	1015.8	0	0.000	0.0
20090624 03:00	11.3	11.3	11.3	95	10.5	6	11	270	0.0	1015.8	0	0.000	0.0
20090624 03:05	11.3	11.3	11.3	95	10.5	8	14	270	0.0	1015.8	0	0.000	0.0
20090624 03:10	11.3	11.3	11.3	95	10.5	8	16	270	0.2	1015.8	0	0.000	0.0
20090624 03:15	11.3	11.3	11.3	95	10.5	8	16	270	0.4	1015.7	0	0.000	0.0
20090624 03:20	11.3	11.3	11.3	95	10.5	6	13	292	0.4	1015.6	0	0.000	0.0
20090624 03:25	11.3	11.3	11.3	95	10.5	6	14	292	0.0	1015.5	0	0.000	0.0
20090624 03:30	11.2	11.2	11.2	95	10.4	8	16	292	0.2	1015.6	0	0.000	0.0
20090624 03:35	11.2	11.2	11.2	95	10.4	6	14	270	0.0	1015.5	0	0.000	0.0
20090624 03:40	11.3	11.3	11.3	95	10.5	6	11	270	0.0	1015.5	0	0.000	0.0
20090624 03:45	11.2	11.2	11.2	95	10.4	8	16	292	0.0	1015.4	0	0.000	0.0
20090624 03:50	11.2	11.2	11.2	95	10.4	10	16	292	0.0	1015.3	0	0.000	0.0
20090624 03:55	11.2	11.2	11.2	95	10.4	8	14	292	0.0	1015.3	0	0.000	0.0
20090624 04:00	11.2	11.2	11.2	95	10.4	8	16	270	0.0	1015.3	0	0.000	0.0
20090624 04:05	11.2	11.2	11.2	95	10.4	10	16	270	0.0	1015.1	0	0.000	0.0
20090624 04:10	11.2	11.2	11.2	95	10.4	10	16	270	0.0	1015.0	0	0.000	0.0
20090624 04:15	11.2	11.2	11.2	95	10.4	10	16	270	0.0	1015.1	0	0.000	0.0
20090624 04:20	11.2	11.2	11.2	95	10.4	10	16	270	0.0	1015.1	0	0.000	0.0
20090624 04:25	11.2	11.2	11.2	95	10.4	11	18	292	0.0	1015.1	0	0.000	0.0
20090624 04:30	11.2	11.2	11.2	95	10.4	10	18	270	0.0	1015.0	0	0.000	0.0
20090624 04:35	11.2	11.2	11.2	95	10.4	10	19	292	0.0	1015.0	0	0.000	0.0
20090624 04:40	11.2	11.2	11.2	95	10.4	10	18	292	0.4	1014.9	0	0.000	0.0
20090624 04:45	11.1	11.1	11.1	95	10.3	10	16	292	0.0	1015.0	0	0.000	0.0
20090624 04:50	11.1	11.1	11.1	95	10.3	8	11	292	0.2	1014.9	0	0.000	0.0
20090624 04:55	11.1	11.1	11.1	95	10.3	8	14	315	0.0	1014.9	0	0.000	0.0
20090624 05:00	11.1	11.1	11.1	95	10.3	10	16	292	0.2	1014.8	0	0.000	0.0
20090624 05:05	11.1	11.1	11.1	95	10.3	10	18	292	0.0	1014.8	0	0.000	0.0
20090624 05:10	11.1	11.1	11.1	95	10.3	10	16	292	0.2	1014.9	0	0.000	0.0
20090624 05:15	11.0	11.0	11.0	95	10.2	6	11	315	0.0	1014.9	0	0.000	0.0
20090624 05:20	11.0	11.0	11.0	95	10.2	8	16	292	0.2	1014.9	0	0.000	0.0
20090624 05:25	11.0	11.0	11.0	95	10.2	10	16	292	0.0	1014.9	0	0.000	0.0
20090624 05:30	11.0	11.0	11.0	95	10.2	10	18	292	0.2	1014.9	0	0.000	0.0
20090624 05:35	11.0	11.0	11.0	95	10.2	11	21	292	0.4	1014.7	0	0.000	0.0
20090624 05:40	10.9	10.9	10.9	95	10.2	10	18	292	0.4	1014.9	0	0.000	0.0
20090624 05:45	10.9	10.9	10.9	95	10.2	6	11	292	0.6	1014.8	0	0.000	0.0
20090624 05:50	10.9	10.9	10.9	95	10.2	8	14	292	0.6	1014.7	0	0.000	0.0
20090624 05:55	10.9	10.9	10.9	95	10.2	8	13	292	0.2	1014.5	0	0.000	0.0
20090624 06:00	10.9	10.9	10.9	95	10.2	8	14	292	0.0	1014.5	0	0.000	0.0
20090624 06:05	10.9	10.9	10.9	95	10.1	8	14	292	0.2	1014.6	0	0.000	0.0
20090624 06:10	10.8	10.8	10.8	95	10.1	10	18	292	0.0	1014.5	0	0.000	0.0
20090624 06:15	10.8	10.8	10.8	95	10.1	8	14	292	0.0	1014.5	0	0.000	0.0
20090624 06:20	10.8	10.8	10.8	95	10.1	8	16	292	0.0	1014.5	3	0.000	0.0
20090624 06:25	10.8	10.8	10.8	95	10.1	8	18	292	0.2	1014.5	3	0.000	0.0
20090624 06:30	10.8	10.8	10.8	95	10.1	8	16	292	0.0	1014.5	2	0.000	0.0
20090624 06:35	10.8	10.8	10.8	95	10.1	8	16	292	0.0	1014.5	7	0.000	0.0
20090624 06:40	10.8	10.8	10.8	95	10.1	6	14	292	0.0	1014.5	7	0.000	0.0
20090624 06:45	10.8	10.8	10.8	95	10.1	6	11	292	0.0	1014.5	1	0.000	0.0
20090624 06:50	10.8	10.8	10.8	95	10.0	8	11	292	0.0	1014.5	4	0.000	0.0
20090624 06:55	10.8	10.8	10.8	95	10.1	6	11	292	0.0	1014.6	8	0.000	0.0
20090624 07:00	10.8	10.8	10.8	95	10.0	8	14	292	0.0	1014.6	12	0.000	0.0
20090624 07:05	10.8	10.8	10.8	95	10.0	8	11	292	0.0	1014.6	10	0.000	0.0
20090624 07:10	10.8	10.8	10.8	95	10.0	6	14	292	0.0	1014.7	6	0.000	0.0
20090624 07:15	10.8	10.8	10.8	95	10.0	6	10	292	0.4	1014.6	9	0.000	0.0
20090624 07:20	10.8	10.8	10.8	95	10.0	5	10	292	0.2	1014.6	17	0.000	0.0
20090624 07:25	10.8	10.8	10.8	95	10.0	6	14	292	0.0	1014.6	11	0.000	0.0
20090624 07:30	10.8	10.8	10.8	95	10.0	6	11	292	0.0	1014.5	11	0.000	0.0
20090624 07:35	10.7	10.7	10.7	95	10.0	6	11	292	0.0	1014.5	17	0.000	0.0
20090624 07:40	10.7	10.7	10.7	95	10.0	6	11	270	0.0	1014.5	26	0.000	0.0
20090624 07:45	10.8	10.8	10.8	95	10.0	6	13	270	0.0	1014.5	32	0.000	0.0
20090624 07:50	10.8	10.8	10.8	95	10.0	6	13	270	0.0	1014.5	31	0.000	0.0
20090624 07:55	10.8	10.8	10.8	95	10.0	6	11	270	0.0	1014.5	29	0.000	0.0
20090624 08:00	10.8	10.8	10.8	95	10.0	6	10	292	0.0	1014.6	32	0.025	0.0
20090624 08:05	10.8	10.8	10.8	95	10.0	8	13	270	0.0	1014.6	42	0.000	0.0
20090624 08:10	10.8	10.8	10.8	95	10.1	8	13	270	0.0	1014.5	44	0.000	0.0
20090624 08:15	10.8	10.8	10.8	95	10.1	6	13	292	0.0	1014.5	46	0.000	0.0
20090624 08:20	10.9	10.9	10.9	95	10.1	8	14	270	0.0	1014.4	56	0.000	0.0
20090624 08:25	10.9	10.9	10.9	95	10.2	8	14	270	0.0	1014.6	46	0.000	0.0
20090624 08:30	10.9	10.9	10.9	95	10.2	6	14	270	0.0	1014.5	39	0.000	0.0
20090624 08:35	10.9	10.9	10.9	94	10.0	8	16	292	0.0	1014.5	35	0.000	0.0
20090624 08:40	10.9	10.9	10.9	94	10.0	8	14	292	0.0	1014.5	34	0.000	0.0
20090624 08:45	10.9	10.9	10.9	94	10.0	6	11	292	0.0	1014.5	36	0.000	0.0
20090624 08:50	10.9	10.9	10.9	94	10.0	8	14	270	0.0	1014.5	41	0.000	0.0
20090624 08:55	10.9	10.9	10.9	94	10.0	8	14	270	0.0	1014.6	31	0.000	0.0
20090624 09:00	10.9	10.9	10.9	94	10.0	8	16	270	0.0	1014.5	39	0.025	0.0
20090624 09:05	10.9	10.9	10.9	95	10.2	6	10	292	0.0	1014.6	40	0.000	0.0
20090624 09:10	10.9	10.9	10.9	94	10.0	6	11	270	0.0	1014.6	40	0.000	0.0
20090624 09:15	10.9	10.9	10.9	94	10.0	6	13	270	0.0	1014.4	43	0.000	0.0
20090624 09:20	10.9	10.9	10.9	94	10.0	8	11	292	0.0	1014.4	48	0.000	0.0
20090624 09:25	11.0	11.0	11.0	94	10.1	6	16	292	0.0	1014.5	41	0.000	0.0
20090624 09:30	11.0	11.0	11.0	94	10.1	8	14	270	0.0	1014.5	53	0.000	0.1
20090624 09:35	11.0	11.0	11.0	94	10.1	8	14	292	0.0	1014.5	53	0.000	0.0
20090624 09:40	11.0	11.0	11.0	94	10.1	10	16	270	0.0	1014.4	56	0.000	0.3
20090624 09:45	11.1	11.1	11.1	94	10.1	8	11	270	0.0	1014.3	41	0.000	0.0
20090624 09:50	11.1	11.1	11.1	94	10.1	10	18	270	0.0	1014.3	40	0.000	0.0
20090624 09:55	11.1	11.1	11.1	94	10.1	10	19	270	0.0	1014.4	35	0.000	0.0
20090624 10:00	11.1	11.1	11.1	94	10.1	8	16	292	0.0	1014.5	30	0.025	0.0
20090624 10:05	11.1	11.1	11.1	94	10.1	10	18	292	0.0	1014.5	28	0.000	0.0
20090624 10:10	11.1	11.1	11.1	94	10.1	8	16	270	0.0	1014.5	37	0.000	0.0
20090624 10:15	11.1	11.1	11.1	94	10.2	8	16	270	0.0	1014.5	31	0.000	0.0
20090624 10:20	11.1	11.1	11.1	94	10.2	8	14	292	0.0	1014.5	33	0.000	0.0
20090624 10:25	11.2	11.2	11.2	94	10.2	8	14	225	0.0	1014.5	36	0.000	0.0
20090624 10:30	11.2	11.2	11.2	94	10.2	8	16	248	0.0	1014.5	47	0.000	0.0
20090624 10:35	11.2	11.2	11.2	94	10.3	6	11	270	0.0	1014.6	55	0.000	0.2
20090624 10:40	11.2	11.2	11.2	94	10.3	8	16	270	0.0	1014.6	51	0.000	0.0
20090624 10:45	11.2	11.2	11.2	94	10.3	8	16	292	0.0	1014.6	40	0.000	0.0
20090624 10:50	11.2	11.2	11.2	94	10.3	8	16	270	0.0	1014.6	36	0.000	0.0
20090624 10:55	11.2	11.2	11.2	94	10.3	8	16	292	0.0	1014.7	31	0.000	0.0
20090624 11:00	11.2	11.2	11.2	93	10.1	5	11	270	0.0	1014.8	25	0.025	0.0
20090624 11:05	11.2	11.2	11.2	93	10.1	5	8	270	0.0	1014.8	28	0.000	0.0
20090624 11:10	11.3	11.3	11.3	93	10.2	5	10	292	0.0	1014.8	25	0.000	0.0
20090624 11:15	11.3	11.3	11.3	93	10.2	5	10	292	0.0	1014.8	24	0.000	0.0
20090624 11:20	11.3	11.3	11.3	93	10.2	5	8	292	0.0	1014.7	28	0.000	0.0
20090624 11:25	11.3	11.3	11.3	93	10.2	6	10	270	0.0	1014.7	31	0.000	0.0
20090624 11:30	11.3	11.3	11.3	93	10.2	5	10	292	0.0	1014.7	36	0.000	0.0
20090624 11:35	11.3	11.3	11.3	93	10.2	5	10	292	0.0	1014.9	31	0.000	0.0
20090624 11:40	11.3	11.3	11.3	93	10.2	2	5	292	0.0	1014.9	35	0.000	0.0
20090624 11:45	11.3	11.3	11.3	93	10.2	5	11	292	0.0	1014.8	31	0.000	0.0
20090624 11:50	11.3	11.3	11.3	93	10.2	6	10	292	0.0	1014.7	32	0.000	0.0
20090624 11:55	11.4	11.4	11.4	93	10.3	6	10	292	0.0	1014.6	46	0.000	0.0
20090624 12:00	11.4	11.4	11.4	93	10.4	5	8	292	0.0	1014.7	44	0.025	0.0
20090624 12:05	11.4	11.4	11.4	93	10.4	3	8	292	0.2	1014.9	46	0.000	0.0
20090624 12:10	11.4	11.4	11.4	93	10.4	6	10	292	0.0	1014.9	49	0.000	0.0
20090624 12:15	11.4	11.4	11.4	93	10.4	5	10	270	0.0	1014.8	46	0.000	0.0
20090624 12:20	11.5	11.5	11.5	94	10.6	3	11	270	0.0	1014.8	56	0.000	0.3
20090624 12:25	11.5	11.5	11.5	93	10.4	5	8	270	0.2	1014.8	52	0.000	0.0
20090624 12:30	11.4	11.4	11.4	93	10.4	5	10	270	0.0	1014.9	42	0.000	0.0
20090624 12:35	11.5	11.5	11.5	94	10.6	5	10	270	0.0	1014.8	42	0.000	0.0
20090624 12:40	11.5	11.5	11.5	94	10.6	5	8	292	0.0	1014.8	41	0.000	0.0
20090624 12:45	11.5	11.5	11.5	94	10.6	5	10	270	0.0	1014.8	42	0.000	0.0
20090624 12:50	11.6	11.6	11.6	94	10.6	6	13	270	0.0	1014.8	55	0.000	0.2
20090624 12:55	11.6	11.6	11.6	94	10.6	6	11	270	0.0	1014.9	68	0.000	0.7
20090624 13:00	11.7	11.7	11.7	94	10.7	5	11	270	0.0	1014.9	64	0.025	0.7
20090624 13:05	11.6	11.6	11.6	94	10.7	6	10	270	0.0	1015.0	52	0.000	0.0
20090624 13:10	11.6	11.6	11.6	94	10.7	6	11	270	0.0	1014.9	54	0.000	0.0
20090624 13:15	11.7	11.7	11.7	94	10.7	6	11	248	0.0	1014.9	54	0.000	0.1
20090624 13:20	11.7	11.7	11.7	94	10.7	6	10	248	0.0	1014.8	71	0.000	0.8
20090624 13:25	11.8	11.8	11.8	94	10.8	6	11	270	0.0	1014.8	87	0.000	1.0
20090624 13:30	11.8	11.8	11.8	94	10.9	6	14	270	0.0	1014.8	84	0.000	1.0
20090624 13:35	11.8	11.8	11.8	94	10.9	8	14	270	0.0	1014.8	90	0.000	1.0
20090624 13:40	11.9	11.9	11.9	94	11.0	8	13	248	0.0	1014.7	131	0.000	1.5
20090624 13:45	11.9	11.9	11.9	94	11.0	6	14	248	0.0	1014.6	146	0.000	1.7
20090624 13:50	12.1	12.1	12.1	94	11.1	8	11	248	0.0	1014.7	119	0.000	1.4
20090624 13:55	12.1	12.1	12.1	94	11.1	8	14	270	0.0	1014.7	117	0.000	1.3
20090624 14:00	12.1	12.1	12.1	94	11.2	8	16	270	0.2	1014.6	105	0.051	1.2
20090624 14:05	12.2	12.2	12.2	94	11.2	6	14	270	0.0	1014.7	78	0.000	0.8
20090624 14:10	12.2	12.2	12.2	94	11.2	6	10	270	0.0	1014.6	76	0.000	0.8
20090624 14:15	12.2	12.2	12.2	94	11.3	6	11	270	0.0	1014.6	99	0.000	1.1
20090624 14:20	12.2	12.2	12.2	94	11.3	6	11	270	0.0	1014.7	100	0.000	1.1
20090624 14:25	12.3	12.3	12.3	94	11.3	8	16	270	0.0	1014.7	101	0.000	1.1
20090624 14:30	12.3	12.3	12.3	94	11.4	8	16	270	0.2	1014.6	133	0.000	1.6
20090624 14:35	12.4	12.4	12.4	94	11.4	6	11	270	0.0	1014.6	142	0.000	1.7
20090624 14:40	12.4	12.4	12.4	94	11.5	8	14	270	0.0	1014.6	129	0.000	1.4
20090624 14:45	12.5	12.5	12.5	94	11.6	6	11	270	0.0	1014.6	114	0.000	1.2
20090624 14:50	12.5	12.5	12.5	94	11.6	8	14	270	0.0	1014.5	116	0.000	1.3
20090624 14:55	12.6	12.6	12.6	94	11.7	6	11	292	0.0	1014.6	135	0.000	1.4
20090624 15:00	12.7	12.7	12.7	94	11.7	8	14	270	0.0	1014.6	141	0.051	1.5
20090624 15:05	12.7	12.7	12.7	94	11.8	6	11	270	0.0	1014.6	119	0.000	1.2
20090624 15:10	12.7	12.7	12.7	94	11.7	8	14	270	0.0	1014.6	110	0.000	1.1
20090624 15:15	12.7	12.7	12.7	94	11.8	8	16	270	0.0	1014.6	112	0.000	1.1
20090624 15:20	12.7	12.7	12.7	94	11.8	8	14	248	0.0	1014.6	94	0.000	1.0
20090624 15:25	12.7	12.7	12.7	94	11.8	6	10	270	0.0	1014.5	91	0.000	1.0
20090624 15:30	12.8	12.8	12.8	94	11.8	6	10	270	0.0	1014.5	97	0.000	1.0
20090624 15:35	12.8	12.8	12.8	94	11.8	6	11	292	0.0	1014.6	100	0.000	1.0
20090624 15:40	12.8	12.8	12.8	94	11.9	5	14	270	0.0	1014.5	92	0.000	1.0
20090624 15:45	12.9	12.9	12.9	94	11.9	6	11	270	0.0	1014.5	89	0.000	1.0
20090624 15:50	12.8	12.8	12.8	94	11.9	6	11	292	0.0	1014.5	77	0.000	0.9
20090624 15:55	12.9	12.9	12.9	94	11.9	5	10	292	0.0	1014.4	80	0.000	0.9
20090624 16:00	12.9	12.9	12.9	94	12.0	5	11	270	0.0	1014.5	86	0.051	0.8
20090624 16:05	12.9	12.9	12.9	94	12.0	6	14	270	0.0	1014.5	68	0.000	0.7
20090624 16:10	12.9	12.9	12.9	94	11.9	6	14	248	0.0	1014.5	61	0.000	0.5
20090624 16:15	12.8	12.8	12.8	93	11.7	6	11	270	0.0	1014.5	40	0.000	0.0
20090624 16:20	12.8	12.8	12.8	93	11.7	6	13	292	0.0	1014.5	51	0.000	0.2
20090624 16:25	12.8	12.8	12.8	94	11.9	6	11	270	0.2	1014.4	78	0.000	0.8
20090624 16:30	12.8	12.8	12.8	94	11.9	8	13	270	0.0	1014.5	53	0.000	0.2
20090624 16:35	12.8	12.8	12.8	93	11.7	8	14	270	0.2	1014.4	49	0.000	0.1
20090624 16:40	12.8	12.8	12.8	94	11.8	6	10	270	0.0	1014.4	55	0.000	0.3
20090624 16:45	12.8	12.8	12.8	94	11.8	6	11	270	0.0	1014.4	61	0.000	0.5
20090624 16:50	12.8	12.8	12.8	94	11.8	5	10	270	0.0	1014.4	65	0.000	0.5
20090624 16:55	12.8	12.8	12.8	94	11.9	6	16	248	0.0	1014.4	58	0.000	0.3
20090624 17:00	12.8	12.8	12.8	94	11.9	6	13	292	0.0	1014.4	48	0.025	0.0
20090624 17:05	12.8	12.8	12.8	94	11.8	5	10	292	0.0	1014.4	42	0.000	0.0
20090624 17:10	12.8	12.8	12.8	94	11.9	6	11	270	0.0	1014.4	47	0.000	0.0
20090624 17:15	12.8	12.8	12.8	94	11.9	5	11	292	0.0	1014.4	47	0.000	0.0
20090624 17:20	12.8	12.8	12.8	94	11.9	5	10	292	0.2	1014.3	49	0.000	0.0
20090624 17:25	12.8	12.8	12.8	94	11.9	6	10	270	0.0	1014.4	60	0.000	0.3
20090624 17:30	12.8	12.8	12.8	94	11.9	6	10	270	0.0	1014.4	69	0.000	0.5
20090624 17:35	12.9	12.9	12.9	94	11.9	6	10	270	0.0	1014.3	78	0.000	0.6
20090624 17:40	12.9	12.9	12.9	94	11.9	5	11	270	0.0	1014.3	70	0.000	0.6
20090624 17:45	12.9	12.9	12.9	94	12.0	3	6	292	0.0	1014.3	56	0.000	0.4
20090624 17:50	13.0	13.0	13.0	94	12.1	6	10	292	0.2	1014.3	50	0.000	0.0
20090624 17:55	12.9	12.9	12.9	94	12.0	6	11	270	0.0	1014.2	47	0.000	0.0
20090624 18:00	12.9	12.9	12.9	94	11.9	6	11	270	0.0	1014.2	46	0.025	0.0
20090624 18:05	12.9	12.9	12.9	94	11.9	5	10	270	0.0	1014.2	41	0.000	0.0
20090624 18:10	12.9	12.9	12.9	94	12.0	6	11	270	0.0	1014.3	29	0.000	0.0
20090624 18:15	12.9	12.9	12.9	94	12.0	6	11	270	0.0	1014.3	24	0.000	0.0
20090624 18:20	12.9	12.9	12.9	94	12.0	6	11	270	0.2	1014.3	23	0.000	0.0
20090624 18:25	12.9	12.9	12.9	94	11.9	6	13	270	0.0	1014.3	26	0.000	0.0
20090624 18:30	12.9	12.9	12.9	94	11.9	5	10	270	0.0	1014.3	24	0.000	0.0
20090624 18:35	12.9	12.9	12.9	94	12.0	5	10	270	0.0	1014.3	24	0.000	0.0
20090624 18:40	12.9	12.9	12.9	94	12.0	3	10	270	0.0	1014.2	21	0.000	0.0
20090624 18:45	12.9	12.9	12.9	94	12.0	6	11	270	0.0	1014.2	23	0.000	0.0
20090624 18:50	12.9	12.9	12.9	94	12.0	6	11	270	0.0	1014.2	25	0.000	0.0
20090624 18:55	12.9	12.9	12.9	94	12.0	6	11	248	0.2	1014.2	27	0.000	0.0
20090624 19:00	12.9	12.9	12.9	94	12.0	6	14	225	0.0	1014.2	22	0.025	0.0
20090624 19:05	12.9	12.9	12.9	95	12.2	5	8	270	0.0	1014.1	24	0.000	0.0
20090624 19:10	12.9	12.9	12.9	95	12.2	6	10	270	0.2	1014.2	21	0.000	0.0
20090624 19:15	13.0	13.0	13.0	95	12.2	5	8	270	0.0	1014.2	14	0.000	0.0
20090624 19:20	13.0	13.0	13.0	95	12.2	6	11	270	0.0	1014.3	11	0.000	0.0
20090624 19:25	12.9	12.9	12.9	95	12.2	5	10	270	0.0	1014.3	9	0.000	0.0
20090624 19:30	12.9	12.9	12.9	95	12.2	5	10	270	0.0	1014.2	9	0.000	0.0
20090624 19:35	12.9	12.9	12.9	95	12.2	6	11	270	0.0	1014.2	9	0.000	0.0
20090624 19:40	12.9	12.9	12.9	95	12.2	6	11	270	0.0	1014.2	9	0.000	0.0
20090624 19:45	12.9	12.9	12.9	95	12.2	6	11	270	0.2	1014.1	8	0.000	0.0
20090624 19:50	12.9	12.9	12.9	95	12.2	6	11	270	0.0	1014.1	7	0.000	0.0
20090624 19:55	12.9	12.9	12.9	95	12.2	6	13	270	0.0	1014.1	7	0.000	0.0
20090624 20:00	12.9	12.9	12.9	95	12.2	5	10	270	0.0	1014.2	7	0.000	0.0
20090624 20:05	12.9	12.9	12.9	95	12.2	8	14	270	0.0	1014.2	7	0.000	0.0
20090624 20:10	12.9	12.9	12.9	95	12.2	8	16	270	0.0	1014.1	7	0.000	0.0
20090624 20:15	12.9	12.9	12.9	95	12.2	8	14	270	0.0	1014.1	5	0.000	0.0
20090624 20:20	12.9	12.9	12.9	95	12.2	8	14	270	0.0	1014.1	3	0.000	0.0
20090624 20:25	12.9	12.9	12.9	95	12.2	8	14	270	0.2	1014.1	5	0.000	0.0
20090624 20:30	12.9	12.9	12.9	95	12.2	8	11	270	0.0	1014.1	5	0.000	0.0
20090624 20:35	12.9	12.9	12.9	95	12.2	8	14	270	0.0	1014.1	2	0.000	0.0
20090624 20:40	12.9	12.9	12.9	95	12.2	6	11	248	0.0	1014.1	0	0.000	0.0
20090624 20:45	12.9	12.9	12.9	95	12.2	5	11	248	0.0	1014.2	0	0.000	0.0
20090624 20:50	12.9	12.9	12.9	95	12.2	5	10	270	0.2	1014.1	0	0.000	0.0
20090624 20:55	12.9	12.9	12.9	95	12.2	5	10	270	0.0	1014.2	0	0.000	0.0
20090624 21:00	12.9	12.9	12.9	95	12.2	3	11	292	0.0	1014.3	0	0.000	0.0
20090624 21:05	12.9	12.9	12.9	95	12.2	5	10	248	0.0	1014.3	0	0.000	0.0
20090624 21:10	12.9	12.9	12.9	95	12.2	3	8	248	0.2	1014.3	0	0.000	0.0
20090624 21:15	12.9	12.9	12.9	95	12.2	3	10	248	0.0	1014.3	0	0.000	0.0
20090624 21:20	12.9	12.9	12.9	95	12.2	5	10	270	0.0	1014.3	0	0.000	0.0
20090624 21:25	12.9	12.9	12.9	95	12.2	6	10	248	0.0	1014.3	0	0.000	0.0
20090624 21:30	12.9	12.9	12.9	95	12.2	6	11	270	0.0	1014.3	0	0.000	0.0
20090624 21:35	12.9	12.9	12.9	95	12.2	6	10	292	0.0	1014.4	0	0.000	0.0
20090624 21:40	12.9	12.9	12.9	95	12.2	6	10	270	0.0	1014.4	0	0.000	0.0
20090624 21:45	12.9	12.9	12.9	95	12.2	6	14	270	0.2	1014.3	0	0.000	0.0
20090624 21:50	12.9	12.9	12.9	95	12.2	6	11	270	0.0	1014.4	0	0.000	0.0
20090624 21:55	12.9	12.9	12.9	95	12.2	5	10	248	0.0	1014.3	0	0.000	0.0
20090624 22:00	12.9	12.9	12.9	95	12.2	5	11	270	0.0	1014.3	0	0.000	0.0
20090624 22:05	12.9	12.9	12.9	95	12.2	5	10	270	0.2	1014.4	0	0.000	0.0
20090624 22:10	12.9	12.9	12.9	95	12.2	6	11	270	0.0	1014.4	0	0.000	0.0
20090624 22:15	12.9	12.9	12.9	95	12.2	6	11	270	0.0	1014.3	0	0.000	0.0
20090624 22:20	12.9	12.9	12.9	95	12.2	6	10	248	0.0	1014.3	0	0.000	0.0
20090624 22:25	12.9	12.9	12.9	95	12.2	5	8	248	0.0	1014.3	0	0.000	0.0
20090624 22:30	12.9	12.9	12.9	95	12.2	3	8	248	0.0	1014.3	0	0.000	0.0
20090624 22:35	12.9	12.9	12.9	95	12.2	3	8	248	0.0	1014.3	0	0.000	0.0
20090624 22:40	12.9	12.9	12.9	95	12.2	5	10	270	0.2	1014.3	0	0.000	0.0
20090624 22:45	12.9	12.9	12.9	95	12.2	3	8	270	0.0	1014.2	0	0.000	0.0
20090624 22:50	12.9	12.9	12.9	95	12.2	5	10	270	0.2	1014.1	0	0.000	0.0
20090624 22:55	12.9	12.9	12.9	95	12.2	5	8	270	0.0	1014.1	0	0.000	0.0
20090624 23:00	12.9	12.9	12.9	95	12.2	3	6	270	0.0	1014.0	0	0.000	0.0
20090624 23:05	12.9	12.9	12.9	95	12.2	3	8	270	0.0	1014.0	0	0.000	0.0
20090624 23:10	12.9	12.9	12.9	95	12.2	5	6	270	0.0	1014.0	0	0.000	0.0
20090624 23:15	12.9	12.9	12.9	95	12.2	3	6	270	0.2	1014.0	0	0.000	0.0
20090624 23:20	12.9	12.9	12.9	95	12.2	2	6	270	0.0	1013.9	0	0.000	0.0
20090624 23:25	12.9	12.9	12.9	95	12.2	3	6	270	0.0	1013.9	0	0.000	0.0
20090624 23:30	12.9	12.9	12.9	95	12.2	5	8	270	0.0	1013.9	0	0.000	0.0
20090624 23:35	12.9	12.9	12.9	95	12.2	3	6	270	0.0	1013.9	0	0.000	0.0
20090624 23:40	12.9	12.9	12.9	95	12.2	3	6	270	0.0	1013.8	0	0.000	0.0
20090624 23:45	12.9	12.9	12.9	95	12.2	3	6	270	0.0	1013.7	0	0.000	0.0
20090624 23:50	12.9	12.9	12.9	95	12.1	5	10	270	0.0	1013.7	0	0.000	0.0
20090624 23:55	12.9	12.9	12.9	95	12.1	5	8	270	0.0	1013.6	0	0.000	0.0



Please note the license to use and transfer of this data:
http://creativecommons.org/licenses/by-nc-sa/3.0/deed.en

Bitte beachten sie die Lizenz zur Verwertung und Weitergabe der Daten:
http://creativecommons.org/licenses/by-nc-sa/3.0/deed.de

zurück zur Übersicht der Archivdaten (Monats und Tagesdaten)

Cookies helfen bei der Bereitstellung von Inhalten. Durch die Nutzung dieser Seiten erklärst du dich damit einverstanden, dass Cookies auf deinem Rechner gespeichert werden. Weitere Information